Time;durP1;ratioP1;P1;durP2;ratioP2;P2;SDS_P1;SDS_P2;PMS_P1;PMS_P2;Temp;Humidity;BMP_temperature;BMP_pressure;BME280_temperature;BME280_humidity;BME280_pressure;Samples;Min_cycle;Max_cycle;Signal;HPM_P1;HPM_P2
2022/07/13 00:00:20;;;;;;;8.63;5.00;;;;;;;15.48;73.25;99778.56;4966581;28;20038;-78
2022/07/13 00:02:47;;;;;;;10.05;5.55;;;;;;;15.46;73.46;99783.84;4981428;28;20042;-75
2022/07/13 00:05:14;;;;;;;10.68;4.78;;;;;;;15.44;73.55;99777.81;4964255;28;20035;-77
2022/07/13 00:07:40;;;;;;;6.00;4.30;;;;;;;15.42;73.52;99763.88;4980885;28;20080;-78
2022/07/13 00:10:06;;;;;;;12.57;6.00;;;;;;;15.42;73.57;99770.88;4964533;28;20869;-75
2022/07/13 00:12:32;;;;;;;12.55;6.13;;;;;;;15.42;73.33;99778.75;4982891;28;20165;-77
2022/07/13 00:14:58;;;;;;;11.35;5.85;;;;;;;15.33;73.35;99761.50;4963395;28;20514;-78
2022/07/13 00:17:24;;;;;;;7.85;5.40;;;;;;;15.33;73.78;99762.38;4963718;28;20042;-77
2022/07/13 00:19:51;;;;;;;10.23;5.88;;;;;;;15.29;73.50;99758.13;4981141;28;20059;-74
2022/07/13 00:22:17;;;;;;;8.75;5.80;;;;;;;15.36;73.82;99767.53;4982778;28;20420;-75
2022/07/13 00:24:43;;;;;;;11.65;5.70;;;;;;;15.33;73.79;99762.38;4936052;28;20401;-75
2022/07/13 00:27:09;;;;;;;7.80;5.85;;;;;;;15.35;73.94;99760.56;4963589;28;20477;-77
2022/07/13 00:29:35;;;;;;;8.55;6.32;;;;;;;15.39;73.70;99765.72;4985083;28;20512;-75
2022/07/13 00:32:02;;;;;;;10.57;5.60;;;;;;;15.36;73.79;99767.53;4965913;28;20147;-77
2022/07/13 00:34:30;;;;;;;11.38;5.78;;;;;;;15.35;73.81;99770.19;4969431;28;20101;-76
2022/07/13 00:36:56;;;;;;;6.97;5.63;;;;;;;15.31;74.02;99758.06;4966770;28;20078;-78
2022/07/13 00:39:23;;;;;;;11.15;5.68;;;;;;;15.31;73.51;99764.19;4985297;28;20043;-76
2022/07/13 00:41:49;;;;;;;12.30;5.75;;;;;;;15.33;73.92;99770.25;4956671;28;20101;-76
2022/07/13 00:44:16;;;;;;;8.35;5.70;;;;;;;15.35;74.00;99775.44;4962317;28;20030;-74
2022/07/13 00:46:56;;;;;;;8.25;5.13;;;;;;;15.33;73.79;99765.00;4988354;28;20125;-75
2022/07/13 00:49:22;;;;;;;7.72;5.20;;;;;;;15.30;73.91;99770.34;4972114;28;20043;-76
2022/07/13 00:51:50;;;;;;;7.50;4.90;;;;;;;15.33;74.00;99762.38;4952799;28;20081;-76
2022/07/13 00:54:19;;;;;;;12.50;5.72;;;;;;;15.29;74.14;99768.63;4967083;28;20046;-80
2022/07/13 00:56:48;;;;;;;8.97;6.00;;;;;;;15.31;73.96;99769.44;4986215;28;20030;-80
2022/07/13 00:59:15;;;;;;;9.13;5.55;;;;;;;15.33;73.93;99774.63;4955906;28;20294;-77
2022/07/13 01:01:41;;;;;;;8.73;5.32;;;;;;;15.33;74.09;99772.88;4959104;28;20518;-77
2022/07/13 01:04:07;;;;;;;6.70;5.03;;;;;;;15.27;74.13;99773.03;4957947;28;20042;-76
2022/07/13 01:06:34;;;;;;;8.73;5.15;;;;;;;15.31;74.20;99769.44;4991666;28;20057;-79
2022/07/13 01:09:01;;;;;;;9.20;4.40;;;;;;;15.25;74.13;99761.75;4977539;28;20177;-75
2022/07/13 01:11:31;;;;;;;9.13;6.18;;;;;;;15.31;74.26;99766.81;4960521;28;20045;-77
2022/07/13 01:13:57;;;;;;;9.75;5.15;;;;;;;15.33;74.27;99764.13;4999437;28;20038;-75
2022/07/13 01:16:24;;;;;;;7.20;4.88;;;;;;;15.28;74.50;99751.19;4990260;28;20365;-75
2022/07/13 01:18:51;;;;;;;6.85;4.63;;;;;;;15.34;74.40;99756.22;4992445;28;20146;-75
2022/07/13 01:21:18;;;;;;;12.70;5.55;;;;;;;15.36;74.07;99762.28;4976731;28;20054;-76
2022/07/13 01:23:45;;;;;;;9.75;5.40;;;;;;;15.35;74.40;99759.72;4996089;28;20050;-78
2022/07/13 01:26:11;;;;;;;10.07;5.45;;;;;;;15.29;74.44;99750.28;4981055;28;20046;-77
2022/07/13 01:28:37;;;;;;;11.60;5.95;;;;;;;15.31;74.30;99753.72;4970934;28;20425;-76
2022/07/13 01:31:04;;;;;;;9.48;5.50;;;;;;;15.37;74.42;99757.91;4937386;28;20099;-77
2022/07/13 01:33:30;;;;;;;9.25;5.40;;;;;;;15.36;74.50;99759.66;4985666;28;20054;-78
2022/07/13 01:35:56;;;;;;;10.75;6.00;;;;;;;15.38;74.29;99759.63;4966804;28;20042;-79
2022/07/13 01:38:23;;;;;;;9.38;5.68;;;;;;;15.39;74.47;99761.34;4967090;28;20047;-77
2022/07/13 01:40:52;;;;;;;10.07;5.32;;;;;;;15.36;74.28;99754.41;4967762;28;20042;-79
2022/07/13 01:43:28;;;;;;;9.00;5.53;;;;;;;15.39;74.34;99755.22;4954777;28;20057;-78
2022/07/13 01:45:54;;;;;;;9.55;5.57;;;;;;;15.37;74.52;99752.66;4983454;28;20066;-74
2022/07/13 01:48:20;;;;;;;9.02;5.90;;;;;;;15.39;74.59;99749.97;4972006;28;20045;-76
2022/07/13 01:50:47;;;;;;;7.53;5.88;;;;;;;15.44;74.41;99750.72;4977776;28;20066;-75
2022/07/13 01:53:13;;;;;;;10.77;6.30;;;;;;;15.43;74.51;99757.72;4955380;28;20046;-76
2022/07/13 01:55:39;;;;;;;8.88;5.90;;;;;;;15.47;74.66;99751.47;4966756;28;20514;-76
2022/07/13 01:58:05;;;;;;;12.32;5.82;;;;;;;15.50;74.63;99756.63;4972252;28;20038;-75
2022/07/13 02:00:32;;;;;;;8.95;5.47;;;;;;;15.55;74.48;99756.50;4979894;28;20105;-75
2022/07/13 02:02:58;;;;;;;10.57;5.97;;;;;;;15.54;74.61;99749.53;4988072;28;20050;-77
2022/07/13 02:05:26;;;;;;;8.95;5.40;;;;;;;15.62;74.53;99767.66;4969940;28;20049;-78
2022/07/13 02:07:54;;;;;;;9.13;5.28;;;;;;;15.65;74.27;99762.34;4969465;28;20053;-77
2022/07/13 02:10:20;;;;;;;8.32;5.28;;;;;;;15.71;74.38;99756.03;4950020;28;20487;-80
2022/07/13 02:12:46;;;;;;;8.70;6.20;;;;;;;15.75;74.57;99757.66;4966895;28;20045;-78
2022/07/13 02:15:13;;;;;;;9.07;5.93;;;;;;;15.81;74.58;99755.69;4952490;28;20078;-77
2022/07/13 02:17:40;;;;;;;8.45;6.47;;;;;;;15.89;74.67;99752.88;4954581;28;20050;-77
2022/07/13 02:20:08;;;;;;;10.73;6.95;;;;;;;16.00;74.34;99756.94;4966208;28;20140;-79
2022/07/13 02:22:44;;;;;;;8.60;6.13;;;;;;;16.08;74.42;99744.41;4981286;28;20478;-76
2022/07/13 02:25:12;;;;;;;10.43;6.97;;;;;;;16.19;74.03;99738.78;4966464;28;20113;-77
2022/07/13 02:27:42;;;;;;;9.85;5.60;;;;;;;16.22;74.15;99746.56;4967054;28;20065;-77
2022/07/13 02:30:11;;;;;;;10.35;5.35;;;;;;;16.31;73.78;99741.03;4967775;28;20042;-79
2022/07/13 02:32:40;;;;;;;6.60;5.15;;;;;;;16.44;73.85;99737.97;4953796;28;20478;-79
2022/07/13 02:35:07;;;;;;;10.48;5.53;;;;;;;16.56;73.77;99746.28;4966276;28;20061;-78
2022/07/13 02:37:36;;;;;;;9.85;5.05;;;;;;;16.65;73.38;99744.28;4953305;28;20065;-76
2022/07/13 02:40:06;;;;;;;11.18;5.60;;;;;;;16.79;73.21;99746.38;4953723;28;20038;-78
2022/07/13 02:42:32;;;;;;;8.75;5.30;;;;;;;16.82;72.74;99751.53;4964676;28;20136;-75
2022/07/13 02:44:59;;;;;;;10.43;6.10;;;;;;;16.83;72.46;99742.75;4953314;28;20066;-79
2022/07/13 02:47:25;;;;;;;9.57;5.05;;;;;;;16.86;72.70;99738.25;4983481;28;20074;-75
2022/07/13 02:49:52;;;;;;;14.93;5.68;;;;;;;16.95;72.54;99737.09;4965974;28;20046;-74
2022/07/13 02:52:18;;;;;;;8.55;5.63;;;;;;;17.08;72.52;99741.88;4965132;28;20056;-78
2022/07/13 02:54:46;;;;;;;9.93;5.60;;;;;;;17.19;72.43;99728.34;4964437;28;20108;-77
2022/07/13 02:57:13;;;;;;;15.93;7.03;;;;;;;17.26;71.74;99724.56;4969455;28;20072;-76
2022/07/13 02:59:39;;;;;;;14.93;6.25;;;;;;;17.29;72.10;99724.47;4965690;28;20309;-76
2022/07/13 03:02:06;;;;;;;10.15;6.28;;;;;;;17.49;71.96;99738.63;4965230;28;20515;-78
2022/07/13 03:04:34;;;;;;;10.73;6.07;;;;;;;17.63;71.89;99732.84;4968401;28;20052;-76
2022/07/13 03:07:01;;;;;;;15.73;6.13;;;;;;;17.79;71.71;99722.53;4953954;28;20101;-75
2022/07/13 03:09:28;;;;;;;14.52;6.85;;;;;;;17.82;70.77;99717.16;4953652;28;20042;-75
2022/07/13 03:11:55;;;;;;;14.77;6.70;;;;;;;17.92;70.99;99732.50;4952470;28;20039;-75
2022/07/13 03:14:21;;;;;;;12.65;6.43;;;;;;;17.92;70.66;99721.13;4951424;28;20042;-75
2022/07/13 03:16:47;;;;;;;14.15;6.32;;;;;;;18.05;70.44;99737.31;4949142;28;20045;-75
2022/07/13 03:19:14;;;;;;;12.15;7.10;;;;;;;18.08;70.26;99729.31;4936227;28;20063;-76
2022/07/13 03:21:40;;;;;;;19.70;7.68;;;;;;;18.14;70.16;99742.19;4963429;28;20507;-75
2022/07/13 03:24:07;;;;;;;14.65;7.22;;;;;;;18.22;69.96;99739.25;4964981;28;20128;-76
2022/07/13 03:26:33;;;;;;;14.52;7.00;;;;;;;18.25;69.71;99736.47;4935429;28;20049;-77
2022/07/13 03:29:00;;;;;;;12.27;6.43;;;;;;;18.43;69.77;99741.88;4982288;28;20113;-76
2022/07/13 03:31:27;;;;;;;12.27;6.32;;;;;;;18.58;69.79;99737.75;4936264;28;20034;-75
2022/07/13 03:33:54;;;;;;;11.07;6.03;;;;;;;18.65;69.08;99729.50;4952198;28;20503;-76
2022/07/13 03:36:22;;;;;;;15.50;6.70;;;;;;;18.72;68.80;99726.63;4981585;28;20046;-77
2022/07/13 03:38:48;;;;;;;14.00;6.13;;;;;;;18.88;68.69;99739.97;4964196;28;20052;-76
2022/07/13 03:41:14;;;;;;;8.90;6.05;;;;;;;19.05;68.46;99744.53;4983846;28;20042;-77
2022/07/13 03:43:41;;;;;;;12.07;6.63;;;;;;;19.20;67.84;99737.72;4952689;28;20042;-77
2022/07/13 03:46:08;;;;;;;12.40;6.65;;;;;;;19.33;67.94;99740.63;4965823;28;20042;-78
2022/07/13 03:48:34;;;;;;;15.82;7.10;;;;;;;19.50;67.84;99738.06;4964984;28;20034;-77
2022/07/13 03:51:01;;;;;;;12.57;6.40;;;;;;;19.70;67.61;99749.47;4964939;28;20046;-75
2022/07/13 03:53:27;;;;;;;17.45;7.13;;;;;;;19.82;67.47;99737.47;4948349;28;20459;-75
2022/07/13 03:55:53;;;;;;;13.48;6.43;;;;;;;20.01;66.71;99743.59;4942284;28;20064;-78
2022/07/13 03:58:19;;;;;;;14.95;6.55;;;;;;;20.15;66.54;99736.75;4965017;28;20038;-75
2022/07/13 04:00:48;;;;;;;14.98;6.75;;;;;;;20.27;66.18;99740.56;4952800;28;20038;-77
2022/07/13 04:03:15;;;;;;;11.65;6.38;;;;;;;20.39;66.02;99741.75;4963870;28;20102;-77
2022/07/13 04:05:41;;;;;;;15.75;6.55;;;;;;;20.55;66.11;99740.03;4935012;28;20356;-76
2022/07/13 04:08:08;;;;;;;13.95;5.95;;;;;;;20.71;65.47;99741.91;4965745;28;20049;-76
2022/07/13 04:10:35;;;;;;;9.30;5.90;;;;;;;20.75;64.67;99733.72;4952958;28;20136;-76
2022/07/13 04:13:01;;;;;;;8.98;6.15;;;;;;;20.75;64.38;99733.72;4981051;28;20038;-78
2022/07/13 04:15:28;;;;;;;9.38;5.60;;;;;;;20.95;63.59;99750.34;4981734;28;20069;-76
2022/07/13 04:17:54;;;;;;;11.43;6.15;;;;;;;21.04;63.21;99741.94;4951329;28;20137;-78
2022/07/13 04:20:21;;;;;;;9.77;5.63;;;;;;;20.99;62.88;99741.31;4964351;28;20051;-76
2022/07/13 04:22:47;;;;;;;13.98;6.22;;;;;;;21.13;62.14;99745.00;4964973;28;20410;-75
2022/07/13 04:25:14;;;;;;;11.30;6.13;;;;;;;21.04;62.12;99747.22;4964281;28;20509;-75
2022/07/13 04:27:41;;;;;;;13.68;6.13;;;;;;;20.94;61.36;99743.34;4950120;28;20181;-77
2022/07/13 04:30:08;;;;;;;11.80;5.07;;;;;;;21.08;62.26;99739.97;4981246;28;20144;-76
2022/07/13 04:32:35;;;;;;;12.63;5.55;;;;;;;21.26;61.67;99737.25;4934374;28;20041;-76
2022/07/13 04:35:01;;;;;;;15.77;5.43;;;;;;;21.41;61.48;99727.63;4947361;28;20132;-77
2022/07/13 04:37:30;;;;;;;10.98;5.70;;;;;;;21.55;60.89;99737.47;4965269;28;20038;-76
2022/07/13 04:39:56;;;;;;;10.13;5.65;;;;;;;21.79;61.00;99732.59;4965383;28;20050;-76
2022/07/13 04:42:22;;;;;;;10.73;5.22;;;;;;;21.99;60.34;99730.59;4951243;28;20077;-76
2022/07/13 04:44:48;;;;;;;13.25;5.63;;;;;;;22.02;60.01;99719.84;4935163;28;20038;-75
2022/07/13 04:47:15;;;;;;;8.73;5.25;;;;;;;22.05;58.95;99738.19;4962603;28;20133;-76
2022/07/13 04:49:42;;;;;;;10.23;4.60;;;;;;;21.99;59.11;99741.19;4949424;28;20042;-77
2022/07/13 04:52:08;;;;;;;9.27;4.75;;;;;;;22.20;59.23;99745.25;4974034;28;20176;-74
2022/07/13 04:54:39;;;;;;;7.23;4.47;;;;;;;22.42;58.40;99728.09;4976260;28;20540;-75
2022/07/13 04:57:05;;;;;;;5.90;4.38;;;;;;;22.42;57.95;99730.72;4955250;28;20077;-78
2022/07/13 04:59:31;;;;;;;10.43;4.55;;;;;;;22.52;57.91;99729.28;4952259;28;20070;-78
2022/07/13 05:01:57;;;;;;;8.27;4.53;;;;;;;22.73;57.39;99730.75;4965240;28;20042;-78
2022/07/13 05:04:24;;;;;;;8.40;4.25;;;;;;;22.71;56.76;99722.88;4965675;28;20042;-79
2022/07/13 05:06:50;;;;;;;9.65;4.20;;;;;;;22.82;56.74;99731.03;4965290;28;20046;-78
2022/07/13 05:09:16;;;;;;;7.95;4.07;;;;;;;23.07;56.60;99721.53;4962894;28;20129;-77
2022/07/13 05:11:43;;;;;;;9.20;4.32;;;;;;;23.24;56.43;99717.88;4938545;28;20046;-76
2022/07/13 05:14:10;;;;;;;7.10;4.35;;;;;;;23.54;55.75;99718.66;4942720;28;20093;-77
2022/07/13 05:16:37;;;;;;;8.15;3.75;;;;;;;23.74;55.33;99712.91;4968257;28;20046;-77
2022/07/13 05:19:06;;;;;;;6.55;4.05;;;;;;;23.86;54.13;99713.06;4955693;28;20061;-77
2022/07/13 05:21:36;;;;;;;8.98;4.25;;;;;;;23.76;54.53;99713.66;4950554;28;20049;-78
2022/07/13 05:24:03;;;;;;;7.28;3.72;;;;;;;23.91;54.33;99703.81;4969068;28;20122;-79
2022/07/13 05:26:29;;;;;;;7.57;3.78;;;;;;;24.00;53.66;99702.41;4970764;28;20466;-77
2022/07/13 05:28:56;;;;;;;4.22;3.80;;;;;;;24.04;53.18;99703.91;4957478;28;20160;-75
2022/07/13 05:31:23;;;;;;;7.15;3.80;;;;;;;24.11;53.24;99680.41;4934633;28;20173;-76
2022/07/13 05:33:49;;;;;;;6.55;3.53;;;;;;;24.27;53.27;99688.22;4960209;28;20533;-77
2022/07/13 05:36:19;;;;;;;5.07;3.60;;;;;;;24.42;52.78;99690.75;4973373;28;20053;-76
2022/07/13 05:38:47;;;;;;;4.40;3.63;;;;;;;24.53;52.51;99682.91;4977941;28;20046;-77
2022/07/13 05:41:13;;;;;;;6.03;3.60;;;;;;;24.50;52.02;99693.75;4988141;28;20084;-77
2022/07/13 05:43:40;;;;;;;5.82;4.20;;;;;;;24.48;51.77;99677.91;4958802;28;20049;-74
2022/07/13 05:46:08;;;;;;;4.30;3.70;;;;;;;24.62;51.41;99689.41;4968238;28;20359;-77
2022/07/13 05:48:35;;;;;;;3.90;3.50;;;;;;;24.89;51.45;99689.31;4957743;28;20035;-75
2022/07/13 05:51:02;;;;;;;5.53;3.40;;;;;;;25.41;51.08;99690.03;4959698;28;20073;-76
2022/07/13 05:53:28;;;;;;;6.20;3.80;;;;;;;25.94;50.08;99685.34;4957436;28;20045;-76
2022/07/13 05:55:54;;;;;;;4.28;2.95;;;;;;;27.56;48.91;99681.75;4953365;28;20038;-76
2022/07/13 05:58:21;;;;;;;4.72;3.00;;;;;;;29.20;46.88;99677.72;4993679;28;20049;-77
2022/07/13 06:00:47;;;;;;;3.53;2.72;;;;;;;31.32;44.30;99671.50;4969746;28;20047;-79
2022/07/13 06:03:13;;;;;;;4.32;2.78;;;;;;;32.85;40.52;99670.50;4947487;28;20072;-78
2022/07/13 06:05:39;;;;;;;7.38;2.80;;;;;;;34.06;37.14;99668.44;4966661;28;20082;-77
2022/07/13 06:08:06;;;;;;;4.93;2.60;;;;;;;34.99;35.78;99664.34;4965823;28;20057;-78
2022/07/13 06:10:32;;;;;;;2.92;2.20;;;;;;;36.28;34.34;99668.34;4981291;28;20042;-77
2022/07/13 06:12:58;;;;;;;2.60;2.25;;;;;;;37.14;32.76;99661.63;4983543;28;20046;-77
2022/07/13 06:15:24;;;;;;;2.47;2.03;;;;;;;37.74;30.46;99658.69;4967453;28;20045;-78
2022/07/13 06:17:50;;;;;;;4.32;2.40;;;;;;;38.37;28.38;99659.81;4965974;28;20042;-77
2022/07/13 06:20:16;;;;;;;3.28;2.13;;;;;;;39.07;28.17;99658.94;4949924;28;20276;-75
2022/07/13 06:22:42;;;;;;;3.17;1.83;;;;;;;40.05;27.46;99663.09;4984199;28;20042;-76
2022/07/13 06:25:09;;;;;;;5.15;2.20;;;;;;;40.64;25.79;99663.22;4949716;28;20042;-75
2022/07/13 06:27:35;;;;;;;2.30;2.10;;;;;;;40.69;24.54;99663.44;4982140;28;20042;-75
2022/07/13 06:30:01;;;;;;;2.63;1.88;;;;;;;40.48;24.13;99662.63;4965750;28;20038;-77
2022/07/13 06:32:27;;;;;;;3.30;1.90;;;;;;;41.24;24.13;99656.69;4965756;28;20136;-76
2022/07/13 06:34:54;;;;;;;2.00;1.80;;;;;;;41.19;23.49;99667.41;4968703;28;20710;-75
2022/07/13 06:37:20;;;;;;;3.78;1.80;;;;;;;41.36;22.81;99654.94;4964853;28;20141;-76
2022/07/13 06:39:46;;;;;;;3.38;1.60;;;;;;;42.28;22.65;99659.03;4981894;28;20533;-76
2022/07/13 06:42:12;;;;;;;3.97;1.90;;;;;;;42.66;22.15;99653.63;4983112;28;20046;-76
2022/07/13 06:44:38;;;;;;;4.93;1.92;;;;;;;42.54;20.65;99654.38;4983010;28;20038;-77
2022/07/13 06:47:04;;;;;;;4.95;2.10;;;;;;;43.02;20.68;99658.22;4982807;28;20058;-78
2022/07/13 06:49:30;;;;;;;2.47;1.35;;;;;;;42.38;20.61;99644.03;4953093;28;20037;-76
2022/07/13 06:51:56;;;;;;;1.98;1.65;;;;;;;42.06;20.68;99655.91;4966281;28;20104;-78
2022/07/13 06:54:22;;;;;;;2.17;1.67;;;;;;;41.53;20.16;99649.78;4981887;28;20121;-78
2022/07/13 06:56:49;;;;;;;4.65;1.80;;;;;;;41.43;20.25;99654.03;4967865;28;20513;-77
2022/07/13 06:59:15;;;;;;;2.00;1.50;;;;;;;42.33;20.10;99641.97;4983321;28;20097;-77
2022/07/13 07:01:41;;;;;;;3.80;1.90;;;;;;;40.91;20.30;99646.78;4953443;28;20038;-77
2022/07/13 07:04:07;;;;;;;3.80;1.50;;;;;;;38.75;21.58;99644.97;4984925;28;20613;-77
2022/07/13 07:06:33;;;;;;;5.47;1.75;;;;;;;36.50;23.58;99645.97;4947949;28;20057;-77
2022/07/13 07:08:59;;;;;;;2.47;1.80;;;;;;;34.84;25.38;99644.47;4950896;28;20096;-78
2022/07/13 07:11:26;;;;;;;9.02;1.67;;;;;;;33.75;26.29;99651.06;4947039;28;20101;-76
2022/07/13 07:13:52;;;;;;;2.60;1.73;;;;;;;32.46;28.00;99650.25;4970435;28;20038;-79
2022/07/13 07:16:18;;;;;;;3.40;1.52;;;;;;;31.87;28.82;99658.09;4953192;28;20074;-77
2022/07/13 07:18:44;;;;;;;3.92;1.50;;;;;;;31.10;29.46;99649.38;4950294;28;20054;-77
2022/07/13 07:21:10;;;;;;;4.15;1.70;;;;;;;31.74;30.41;99658.47;4983217;28;20042;-79
2022/07/13 07:23:36;;;;;;;2.65;1.60;;;;;;;33.54;28.17;99646.13;4982807;28;20129;-79
2022/07/13 07:26:03;;;;;;;4.63;1.50;;;;;;;33.46;27.92;99643.41;4967472;28;20085;-75
2022/07/13 07:28:29;;;;;;;1.73;1.50;;;;;;;35.07;27.28;99622.91;4992715;28;20038;-77
2022/07/13 07:30:56;;;;;;;2.17;1.60;;;;;;;35.87;26.47;99623.53;4990647;28;20076;-77
2022/07/13 07:33:26;;;;;;;1.60;1.50;;;;;;;37.57;24.72;99616.59;5226114;23;20041;-81
2022/07/13 07:35:53;;;;;;;1.90;1.30;;;;;;;37.64;23.67;99633.75;5044295;28;22291;-78
2022/07/13 07:38:19;;;;;;;1.85;1.23;;;;;;;37.45;23.34;99636.09;5040962;28;20045;-75
2022/07/13 07:40:45;;;;;;;1.30;1.20;;;;;;;38.22;23.42;99611.88;5022017;28;20033;-75
2022/07/13 07:43:11;;;;;;;4.05;1.40;;;;;;;39.69;22.49;99615.31;5024173;28;20101;-77
2022/07/13 07:45:38;;;;;;;2.83;1.30;;;;;;;40.46;21.83;99623.88;5005828;28;20063;-77
2022/07/13 07:48:04;;;;;;;5.40;1.25;;;;;;;41.36;21.23;99616.75;5042569;28;20049;-78
2022/07/13 07:50:30;;;;;;;3.08;1.40;;;;;;;41.31;20.35;99616.56;5004411;28;20042;-78
2022/07/13 07:52:56;;;;;;;2.35;1.50;;;;;;;41.14;20.61;99626.34;5011246;28;20045;-77
2022/07/13 07:55:23;;;;;;;2.40;1.35;;;;;;;40.24;19.55;99636.06;5026266;28;20400;-77
2022/07/13 07:57:50;;;;;;;3.88;1.30;;;;;;;37.40;20.87;99629.53;5026445;28;20041;-78
2022/07/13 08:00:17;;;;;;;1.48;1.33;;;;;;;35.69;22.46;99633.84;5005820;28;20045;-77
2022/07/13 08:02:44;;;;;;;2.55;1.50;;;;;;;34.50;23.85;99634.78;5008283;28;20240;-78
2022/07/13 08:05:11;;;;;;;1.45;1.35;;;;;;;33.88;25.32;99638.91;5009481;28;20067;-78
2022/07/13 08:07:44;;;;;;;1.88;1.58;;;;;;;33.05;26.64;99639.59;5007565;28;20049;-77
2022/07/13 08:10:12;;;;;;;3.75;1.77;;;;;;;32.84;26.78;99639.19;5027113;28;20052;-78
2022/07/13 08:12:39;;;;;;;2.22;1.80;;;;;;;32.65;26.66;99641.09;5006774;28;20049;-78
2022/07/13 08:15:09;;;;;;;2.70;1.55;;;;;;;32.27;27.17;99638.72;5007761;28;20084;-78
2022/07/13 08:17:37;;;;;;;4.40;1.98;;;;;;;31.89;27.43;99642.63;5020371;28;20137;-77
2022/07/13 08:20:04;;;;;;;3.47;1.75;;;;;;;31.23;27.45;99637.44;5004711;28;20033;-78
2022/07/13 08:22:30;;;;;;;2.50;1.75;;;;;;;30.65;28.24;99618.78;4991147;28;20123;-78
2022/07/13 08:24:56;;;;;;;3.05;1.60;;;;;;;30.59;28.99;99629.28;4994422;28;20040;-78
2022/07/13 08:27:22;;;;;;;4.32;2.15;;;;;;;30.52;29.27;99629.00;4989106;28;20052;-79
2022/07/13 08:29:48;;;;;;;2.95;1.77;;;;;;;30.14;30.00;99620.06;5001070;28;20152;-77
2022/07/13 08:32:15;;;;;;;2.20;1.40;;;;;;;29.80;30.07;99620.53;4986115;28;20049;-76
2022/07/13 08:40:11;;;;;;;3.63;1.95;;;;;;;33.01;27.10;99602.38;5007943;28;20065;-79
2022/07/13 08:42:39;;;;;;;4.60;1.20;;;;;;;34.52;25.05;99593.09;5002925;28;20092;-80
2022/07/13 08:45:06;;;;;;;2.63;1.30;;;;;;;35.84;24.01;99593.31;5003377;28;20037;-78
2022/07/13 08:47:35;;;;;;;1.40;1.23;;;;;;;37.86;23.07;99590.28;4994845;28;20638;-78
2022/07/13 08:50:07;;;;;;;2.65;1.10;;;;;;;38.71;21.89;99596.50;4995610;28;20496;-77
2022/07/13 08:52:38;;;;;;;1.67;1.33;;;;;;;39.86;20.37;99591.28;5026972;28;20180;-80
2022/07/13 08:55:06;;;;;;;4.07;1.25;;;;;;;40.12;20.72;99590.38;5014807;28;20041;-77
2022/07/13 08:57:38;;;;;;;3.35;1.20;;;;;;;40.80;18.92;99604.69;5019395;28;20073;-78
2022/07/13 09:00:10;;;;;;;2.17;1.10;;;;;;;40.82;18.88;99599.84;5016427;28;20022;-76
2022/07/13 09:02:39;;;;;;;1.25;1.15;;;;;;;41.32;18.46;99590.94;5013691;28;20034;-78
2022/07/13 09:05:07;;;;;;;3.20;1.05;;;;;;;41.35;17.86;99595.97;5017109;28;20085;-79
2022/07/13 09:07:35;;;;;;;1.85;1.13;;;;;;;41.20;18.22;99577.19;5034219;28;20041;-78
2022/07/13 09:10:04;;;;;;;1.67;1.20;;;;;;;42.16;17.76;99595.28;5048238;28;20045;-77
2022/07/13 09:12:30;;;;;;;3.38;1.08;;;;;;;42.15;16.03;99601.81;5037850;28;20042;-78
2022/07/13 09:14:57;;;;;;;5.35;1.20;;;;;;;41.13;16.28;99608.28;5027529;28;20081;-78
2022/07/13 09:17:45;;;;;;;3.00;1.20;;;;;;;41.07;16.59;99612.69;5009182;28;20435;-83
2022/07/13 09:20:11;;;;;;;2.67;1.50;;;;;;;41.51;17.07;99601.94;5006416;28;20108;-80
2022/07/13 09:22:50;;;;;;;1.20;1.10;;;;;;;40.68;17.04;99598.22;5005975;28;20049;-77
2022/07/13 09:25:37;;;;;;;1.90;1.08;;;;;;;41.88;16.94;99584.84;5008129;28;20037;-81
2022/07/13 09:28:16;;;;;;;2.92;1.20;;;;;;;40.66;16.99;99593.00;5008087;28;20079;-85
2022/07/13 09:30:44;;;;;;;1.97;1.07;;;;;;;39.40;17.44;99584.75;5007738;28;20601;-81
2022/07/13 09:33:11;;;;;;;2.30;1.20;;;;;;;39.51;17.67;99586.00;4998567;28;20308;-79
2022/07/13 09:35:44;;;;;;;3.50;1.13;;;;;;;38.48;17.93;99590.53;4997538;28;20053;-80
2022/07/13 09:38:31;;;;;;;3.28;1.20;;;;;;;38.17;18.31;99579.06;4981043;28;20045;-80
2022/07/13 09:41:14;;;;;;;1.40;1.30;;;;;;;37.46;18.61;99572.66;5010832;28;20049;-79
2022/07/13 09:47:03;;;;;;;3.40;1.80;;;;;;;36.60;18.81;99563.38;5011076;28;20470;-78
2022/07/13 09:49:44;;;;;;;1.65;1.27;;;;;;;36.44;20.00;99569.81;4998669;28;20422;-77
2022/07/13 09:52:19;;;;;;;1.98;1.25;;;;;;;36.52;20.42;99571.63;5015005;28;20528;-81
2022/07/13 09:54:51;;;;;;;2.60;1.67;;;;;;;36.08;20.33;99564.34;5004553;28;20038;-77
2022/07/13 09:57:21;;;;;;;2.42;1.50;;;;;;;35.73;20.65;99562.94;5000452;28;20084;-81
2022/07/13 09:59:51;;;;;;;1.40;1.30;;;;;;;35.28;20.01;99565.50;5016885;28;20162;-81
2022/07/13 10:02:18;;;;;;;1.10;1.02;;;;;;;34.35;21.35;99561.72;4984663;28;20038;-81
2022/07/13 10:04:47;;;;;;;1.30;1.20;;;;;;;35.50;21.27;99586.50;4996330;28;20485;-80
2022/07/13 10:07:13;;;;;;;2.22;1.10;;;;;;;34.89;20.63;99546.66;4999142;28;20100;-81
2022/07/13 10:09:39;;;;;;;3.40;1.60;;;;;;;34.66;21.53;99555.56;5017520;28;20096;-79
2022/07/13 10:12:07;;;;;;;1.52;1.20;;;;;;;35.96;21.54;99555.84;5000628;28;20464;-75
2022/07/13 10:14:33;;;;;;;3.33;1.90;;;;;;;35.13;21.48;99541.13;4964048;28;20046;-78
2022/07/13 10:17:04;;;;;;;2.25;1.80;;;;;;;34.66;22.46;99544.75;5029372;28;20045;-78
2022/07/13 10:19:32;;;;;;;1.75;1.65;;;;;;;33.64;23.42;99549.75;5030249;28;20044;-77
2022/07/13 10:22:13;;;;;;;5.25;2.00;;;;;;;32.97;25.96;99556.09;5010492;28;20077;-77
2022/07/13 10:24:52;;;;;;;3.33;1.80;;;;;;;32.53;27.48;99556.25;4999592;28;20485;-81
2022/07/13 10:27:21;;;;;;;3.40;1.83;;;;;;;33.55;26.81;99539.09;5000422;28;20045;-78
2022/07/13 10:29:53;;;;;;;3.30;2.00;;;;;;;34.27;26.71;99540.19;4969646;28;20041;-82
2022/07/13 10:32:25;;;;;;;3.25;2.00;;;;;;;33.58;27.26;99523.44;5016990;28;20041;-78
2022/07/13 10:35:05;;;;;;;8.35;2.15;;;;;;;32.60;27.99;99538.44;4998678;28;20140;-79
2022/07/13 10:37:56;;;;;;;3.80;1.65;;;;;;;31.67;28.77;99531.81;5019202;28;20517;-80
2022/07/13 10:40:23;;;;;;;4.40;1.70;;;;;;;30.64;30.49;99533.06;5017829;28;20082;-75
2022/07/13 10:43:04;;;;;;;5.32;1.90;;;;;;;30.25;31.36;99526.00;4997063;28;20048;-79
2022/07/13 10:45:38;;;;;;;2.75;1.58;;;;;;;30.05;31.92;99514.50;5020570;28;20056;-80
2022/07/13 10:48:20;;;;;;;2.00;1.80;;;;;;;29.85;31.72;99501.13;5009782;28;20160;-80
2022/07/13 10:50:52;;;;;;;3.50;1.90;;;;;;;29.66;31.24;99511.91;4988951;28;20041;-77
2022/07/13 10:53:19;;;;;;;2.00;1.58;;;;;;;29.30;31.84;99526.72;4989159;28;20132;-82
2022/07/13 10:55:51;;;;;;;4.32;1.45;;;;;;;28.75;31.73;99524.56;5004222;28;20456;-80
2022/07/13 10:58:43;;;;;;;1.73;1.60;;;;;;;28.75;32.50;99519.22;5003216;28;20041;-80
2022/07/13 11:01:39;;;;;;;1.90;1.77;;;;;;;28.82;32.59;99516.84;5004530;28;20104;-80
2022/07/13 11:04:12;;;;;;;2.13;1.30;;;;;;;28.71;31.94;99529.31;4999062;28;20048;-80
2022/07/13 11:06:39;;;;;;;1.75;1.30;;;;;;;28.48;30.98;99536.72;5016373;28;20382;-80
2022/07/13 11:09:18;;;;;;;1.50;1.38;;;;;;;28.33;30.42;99527.38;5017030;28;20108;-81
2022/07/13 11:11:53;;;;;;;2.55;1.45;;;;;;;28.35;30.30;99522.75;4999752;28;20805;-79
2022/07/13 11:14:43;;;;;;;1.30;1.20;;;;;;;28.56;30.22;99517.31;5011008;28;20046;-78
2022/07/13 11:17:17;;;;;;;5.13;1.70;;;;;;;28.84;30.29;99515.69;5015573;28;20038;-79
2022/07/13 11:19:53;;;;;;;1.30;1.20;;;;;;;28.93;29.99;99513.19;5030014;28;20049;-79
2022/07/13 11:22:23;;;;;;;1.90;1.80;;;;;;;28.98;30.35;99510.94;5004405;28;20045;-78
2022/07/13 11:25:16;;;;;;;4.03;1.55;;;;;;;29.01;30.22;99513.34;4995125;28;20065;-77
2022/07/13 11:28:05;;;;;;;1.52;1.42;;;;;;;28.71;29.97;99509.75;5014656;28;20041;-76
2022/07/13 11:30:35;;;;;;;3.28;1.50;;;;;;;28.39;29.97;99516.97;5026961;28;20045;-78
2022/07/13 11:33:01;;;;;;;2.75;1.20;;;;;;;28.26;30.22;99511.88;5018819;28;20145;-80
2022/07/13 11:35:27;;;;;;;3.17;1.30;;;;;;;27.99;30.23;99517.78;5013309;28;20485;-79
2022/07/13 11:37:53;;;;;;;2.85;1.42;;;;;;;27.79;30.89;99506.97;4995341;28;20069;-77
2022/07/13 11:40:28;;;;;;;3.38;1.33;;;;;;;27.72;30.70;99513.81;4993552;28;20072;-81
2022/07/13 11:42:55;;;;;;;3.05;1.80;;;;;;;27.72;30.49;99513.81;5018275;28;20092;-79
2022/07/13 11:45:32;;;;;;;1.98;1.50;;;;;;;27.64;31.06;99509.13;5013593;28;20096;-80